Time;durP1;ratioP1;P1;durP2;ratioP2;P2;SDS_P1;SDS_P2;PMS_P1;PMS_P2;Temp;Humidity;BMP_temperature;BMP_pressure;BME280_temperature;BME280_humidity;BME280_pressure;Samples;Min_cycle;Max_cycle;Signal;HPM_P1;HPM_P2
2022/06/27 00:02:25;;;;;;;4.03;1.53;;;19.40;42.80;;;;;;5036340;28;46455;-63
2022/06/27 00:04:51;;;;;;;2.70;1.30;;;19.40;43.00;;;;;;5034082;28;45813;-63
2022/06/27 00:07:17;;;;;;;4.53;1.67;;;19.40;43.00;;;;;;5034879;28;46439;-63
2022/06/27 00:09:43;;;;;;;3.53;1.70;;;19.40;42.90;;;;;;5029978;28;46501;-63
2022/06/27 00:12:09;;;;;;;2.90;1.63;;;19.40;42.90;;;;;;5035185;28;46263;-64
2022/06/27 00:14:35;;;;;;;8.50;2.00;;;19.40;42.90;;;;;;5032408;28;46529;-65
2022/06/27 00:17:01;;;;;;;5.20;1.87;;;19.40;42.80;;;;;;5032651;28;46390;-64
2022/06/27 00:19:28;;;;;;;4.37;1.63;;;19.40;42.70;;;;;;5033416;28;46424;-64
2022/06/27 00:21:54;;;;;;;2.70;1.40;;;19.30;42.70;;;;;;5029164;28;46431;-64
2022/06/27 00:24:19;;;;;;;3.90;1.60;;;19.30;43.10;;;;;;5035424;28;46457;-63
2022/06/27 00:26:45;;;;;;;3.93;1.67;;;19.30;43.20;;;;;;5031191;28;46436;-63
2022/06/27 00:29:11;;;;;;;3.30;1.43;;;19.20;43.20;;;;;;5035265;28;46691;-63
2022/06/27 00:31:37;;;;;;;4.20;1.50;;;19.20;43.30;;;;;;5035365;28;46371;-64
2022/06/27 00:34:02;;;;;;;9.33;1.77;;;19.10;43.50;;;;;;5032743;28;46331;-64
2022/06/27 00:36:28;;;;;;;5.07;1.97;;;19.00;44.00;;;;;;5032645;28;46442;-64
2022/06/27 00:38:54;;;;;;;6.87;1.70;;;18.90;44.40;;;;;;5031620;28;46380;-64
2022/06/27 00:41:20;;;;;;;3.47;1.53;;;18.90;45.00;;;;;;5032358;28;47990;-64
2022/06/27 00:43:46;;;;;;;3.43;1.70;;;18.80;45.40;;;;;;5029414;28;46386;-64
2022/06/27 00:46:12;;;;;;;2.97;1.60;;;18.70;45.70;;;;;;5030824;28;46263;-64
2022/06/27 00:48:38;;;;;;;6.67;1.80;;;18.70;45.70;;;;;;5031744;28;46705;-64
2022/06/27 00:51:04;;;;;;;5.07;2.10;;;18.70;46.10;;;;;;5033899;28;47327;-64
2022/06/27 00:53:32;;;;;;;7.10;1.60;;;18.70;46.40;;;;;;5037929;28;46417;-64
2022/06/27 00:55:58;;;;;;;4.53;1.93;;;18.70;46.40;;;;;;5032559;28;46405;-63
2022/06/27 00:58:23;;;;;;;2.83;1.50;;;18.70;46.50;;;;;;5028958;28;46371;-64
2022/06/27 01:00:49;;;;;;;3.90;1.73;;;18.60;47.60;;;;;;5032962;28;46339;-64
2022/06/27 01:03:14;;;;;;;4.77;1.67;;;18.60;46.40;;;;;;5030472;28;46314;-66
2022/06/27 01:05:51;;;;;;;5.47;1.60;;;18.60;46.30;;;;;;5032536;28;46514;-64
2022/06/27 01:08:20;;;;;;;5.53;2.20;;;18.60;46.40;;;;;;5031836;28;46355;-63
2022/06/27 01:10:49;;;;;;;4.37;1.60;;;18.60;46.40;;;;;;5029778;28;46230;-64
2022/06/27 01:13:14;;;;;;;4.83;1.70;;;18.60;46.40;;;;;;5030588;28;46360;-64
2022/06/27 01:15:45;;;;;;;4.67;1.60;;;18.60;46.70;;;;;;5031873;28;47248;-65
2022/06/27 01:18:12;;;;;;;13.13;2.13;;;18.60;47.10;;;;;;5028580;28;45781;-64
2022/06/27 01:20:40;;;;;;;8.53;1.87;;;18.50;47.30;;;;;;5028189;28;46198;-64
2022/06/27 01:23:06;;;;;;;4.50;2.30;;;18.30;48.00;;;;;;5029392;28;46250;-65
2022/06/27 01:25:35;;;;;;;12.43;2.03;;;18.20;48.40;;;;;;5028882;28;46440;-64
2022/06/27 01:28:01;;;;;;;6.17;1.60;;;18.10;48.90;;;;;;5034929;28;46489;-64
2022/06/27 01:30:26;;;;;;;8.23;1.90;;;18.00;49.40;;;;;;5027659;28;47069;-64
2022/06/27 01:32:52;;;;;;;5.63;1.70;;;18.00;49.80;;;;;;5032179;28;46430;-64
2022/06/27 01:35:18;;;;;;;4.87;1.80;;;17.90;50.00;;;;;;5032651;28;46493;-64
2022/06/27 01:37:44;;;;;;;4.93;2.07;;;18.00;50.30;;;;;;5032851;28;46724;-65
2022/06/27 01:40:09;;;;;;;6.73;2.00;;;18.00;50.50;;;;;;5032434;28;46111;-64
2022/06/27 01:42:36;;;;;;;6.70;1.83;;;18.00;50.50;;;;;;5032184;28;46304;-65
2022/06/27 01:45:01;;;;;;;10.50;1.97;;;18.00;50.30;;;;;;5027422;28;46275;-64
2022/06/27 01:47:29;;;;;;;3.63;1.60;;;18.10;50.30;;;;;;5030993;28;46548;-64
2022/06/27 01:49:55;;;;;;;4.80;2.13;;;18.10;50.20;;;;;;5030498;28;46208;-64
2022/06/27 01:52:21;;;;;;;2.93;1.53;;;17.80;54.00;;;;;;5030075;28;45902;-65
2022/06/27 01:54:46;;;;;;;5.60;1.70;;;17.70;55.30;;;;;;5035373;28;46475;-64
2022/06/27 01:57:14;;;;;;;5.63;1.97;;;18.00;55.50;;;;;;5030780;28;46374;-64
2022/06/27 01:59:40;;;;;;;3.10;1.73;;;18.30;54.20;;;;;;5031127;28;46440;-64
2022/06/27 02:02:06;;;;;;;3.57;1.80;;;18.40;53.30;;;;;;5033481;28;46421;-64
2022/06/27 02:04:33;;;;;;;2.93;1.70;;;18.50;53.50;;;;;;5030602;28;46395;-65
2022/06/27 02:07:00;;;;;;;4.17;1.60;;;18.70;52.60;;;;;;5031096;28;46892;-64
2022/06/27 02:09:26;;;;;;;5.63;1.60;;;18.80;52.70;;;;;;5028531;28;47158;-64
2022/06/27 02:11:55;;;;;;;5.90;1.80;;;18.80;52.30;;;;;;5032124;28;45802;-65
2022/06/27 02:14:21;;;;;;;3.17;1.70;;;19.00;52.70;;;;;;5034481;28;46467;-64
2022/06/27 02:16:47;;;;;;;3.50;1.70;;;19.10;52.50;;;;;;5031183;28;46847;-65
2022/06/27 02:19:17;;;;;;;6.60;1.70;;;19.10;52.30;;;;;;5035005;28;46510;-65
2022/06/27 02:21:44;;;;;;;4.50;1.60;;;19.10;52.20;;;;;;5027607;28;46619;-64
2022/06/27 02:24:10;;;;;;;2.73;1.60;;;19.20;52.00;;;;;;5028104;28;46383;-64
2022/06/27 02:26:36;;;;;;;6.00;1.87;;;19.10;51.90;;;;;;5028849;28;46473;-64
2022/06/27 02:29:02;;;;;;;3.63;2.23;;;19.10;52.20;;;;;;5026944;28;46113;-64
2022/06/27 02:31:28;;;;;;;9.33;2.17;;;19.10;52.50;;;;;;5027861;28;46394;-64
2022/06/27 02:33:55;;;;;;;7.53;2.00;;;19.10;53.00;;;;;;5027542;28;46433;-64
2022/06/27 02:36:35;;;;;;;3.20;2.00;;;19.10;53.70;;;;;;5027310;28;45905;-64
2022/06/27 02:39:02;;;;;;;5.20;1.97;;;19.00;54.00;;;;;;5028097;28;47089;-64
2022/06/27 02:41:33;;;;;;;8.77;2.13;;;19.00;54.80;;;;;;5026646;28;46698;-64
2022/06/27 02:44:02;;;;;;;6.33;2.43;;;19.00;54.70;;;;;;5030221;28;45967;-64
2022/06/27 02:46:30;;;;;;;4.20;2.60;;;19.00;54.40;;;;;;5035259;28;46377;-65
2022/06/27 02:48:56;;;;;;;3.80;2.33;;;19.00;55.00;;;;;;5030421;28;47306;-64
2022/06/27 02:51:25;;;;;;;7.00;2.53;;;18.90;54.80;;;;;;5030035;28;46508;-64
2022/06/27 02:54:19;;;;;;;6.60;2.57;;;18.90;54.80;;;;;;5034456;28;46339;-65
2022/06/27 02:57:14;;;;;;;5.63;2.83;;;18.90;55.40;;;;;;5033150;28;46319;-64
2022/06/27 02:59:41;;;;;;;5.23;2.60;;;18.90;55.40;;;;;;5038161;28;46367;-64
2022/06/27 03:02:09;;;;;;;5.73;2.60;;;18.90;55.20;;;;;;5035015;28;46442;-64
2022/06/27 03:04:35;;;;;;;3.63;2.57;;;18.80;55.50;;;;;;5034201;28;47018;-65
2022/06/27 03:07:01;;;;;;;4.10;2.90;;;18.80;56.20;;;;;;5033822;28;46493;-64
2022/06/27 03:09:27;;;;;;;7.47;2.83;;;18.80;56.50;;;;;;5033803;28;46380;-64
2022/06/27 03:11:52;;;;;;;3.93;2.87;;;18.80;56.80;;;;;;5034306;28;46458;-64
2022/06/27 03:14:18;;;;;;;4.60;3.17;;;18.80;57.20;;;;;;5033913;28;46436;-64
2022/06/27 03:16:44;;;;;;;4.63;3.17;;;18.80;57.70;;;;;;5033796;28;46646;-64
2022/06/27 03:19:10;;;;;;;5.77;2.90;;;18.80;57.40;;;;;;5030970;28;46402;-64
2022/06/27 03:21:35;;;;;;;4.33;2.43;;;18.80;57.20;;;;;;5033800;28;46466;-64
2022/06/27 03:24:01;;;;;;;12.90;3.10;;;18.80;57.10;;;;;;5030602;28;46429;-64
2022/06/27 03:26:27;;;;;;;10.90;3.23;;;18.80;57.00;;;;;;5033926;28;46655;-64
2022/06/27 03:28:53;;;;;;;6.10;3.00;;;18.80;56.80;;;;;;5031540;28;47105;-64
2022/06/27 03:31:18;;;;;;;6.00;2.93;;;18.90;56.90;;;;;;5033427;28;46354;-64
2022/06/27 03:33:44;;;;;;;4.53;2.53;;;18.90;57.00;;;;;;5032219;28;46563;-64
2022/06/27 03:36:09;;;;;;;6.03;2.80;;;18.90;56.80;;;;;;5033057;28;45941;-64
2022/06/27 03:38:35;;;;;;;6.63;2.60;;;18.90;56.70;;;;;;5034998;28;46412;-64
2022/06/27 03:41:01;;;;;;;9.23;2.90;;;19.00;56.40;;;;;;5030173;28;46429;-63
2022/06/27 03:43:27;;;;;;;4.23;2.60;;;19.10;56.00;;;;;;5032088;28;46528;-64
2022/06/27 03:45:54;;;;;;;3.80;2.90;;;19.10;55.70;;;;;;5030488;28;46372;-64
2022/06/27 03:51:04;;;;;;;7.80;3.03;;;19.20;56.00;;;;;;5030189;28;45813;-64
2022/06/27 03:53:29;;;;;;;10.10;2.60;;;19.20;55.50;;;;;;5035108;28;46378;-65
2022/06/27 03:55:55;;;;;;;3.83;2.57;;;19.30;55.60;;;;;;5032500;28;45807;-65
2022/06/27 03:58:20;;;;;;;4.37;2.93;;;19.20;55.70;;;;;;5032867;28;46172;-64
2022/06/27 04:00:46;;;;;;;5.70;2.73;;;19.10;55.70;;;;;;5033905;28;45791;-65
2022/06/27 04:03:11;;;;;;;7.43;3.40;;;19.10;55.90;;;;;;5033505;28;46311;-64
2022/06/27 04:05:37;;;;;;;5.60;2.87;;;19.10;55.80;;;;;;5035112;28;45904;-65
2022/06/27 04:08:03;;;;;;;13.67;3.03;;;19.10;55.70;;;;;;5030861;28;46320;-64
2022/06/27 04:10:29;;;;;;;7.70;3.90;;;19.10;55.70;;;;;;5033897;28;45885;-65
2022/06/27 04:12:55;;;;;;;9.50;4.50;;;19.20;55.60;;;;;;5028587;28;46692;-64
2022/06/27 04:15:21;;;;;;;14.07;3.97;;;19.30;55.40;;;;;;5030589;28;46479;-64
2022/06/27 04:17:46;;;;;;;7.00;3.00;;;19.40;54.90;;;;;;5030042;28;46462;-65
2022/06/27 04:20:12;;;;;;;4.20;3.10;;;19.50;54.50;;;;;;5029232;28;46410;-64
2022/06/27 04:22:37;;;;;;;10.57;3.37;;;19.60;54.10;;;;;;5032540;28;46493;-64
2022/06/27 04:25:04;;;;;;;7.40;2.70;;;19.80;53.80;;;;;;5031377;28;46651;-64
2022/06/27 04:27:30;;;;;;;4.63;3.00;;;20.00;53.50;;;;;;5033735;28;47149;-64
2022/06/27 04:29:56;;;;;;;5.90;2.50;;;20.10;53.00;;;;;;5028758;28;45891;-64
2022/06/27 04:32:24;;;;;;;13.53;2.73;;;20.30;52.60;;;;;;5031242;28;46303;-64
2022/06/27 04:34:51;;;;;;;4.13;2.63;;;20.40;52.20;;;;;;5031389;28;46354;-64
2022/06/27 04:37:17;;;;;;;8.30;3.10;;;20.60;51.60;;;;;;5030925;28;46631;-64
2022/06/27 04:39:43;;;;;;;4.93;2.80;;;20.80;51.20;;;;;;5028286;28;46839;-64
2022/06/27 04:42:09;;;;;;;7.50;3.40;;;21.00;50.80;;;;;;5032513;28;46311;-64
2022/06/27 04:44:42;;;;;;;5.13;2.80;;;21.10;50.00;;;;;;5032500;28;46352;-64
2022/06/27 04:47:08;;;;;;;5.27;2.97;;;21.70;49.20;;;;;;5029889;28;47382;-64
2022/06/27 04:49:36;;;;;;;5.87;2.93;;;22.80;47.20;;;;;;5032281;28;45822;-64
2022/06/27 04:52:03;;;;;;;8.57;2.27;;;23.30;45.40;;;;;;5029966;28;46465;-62
2022/06/27 04:54:29;;;;;;;5.90;2.00;;;24.20;43.70;;;;;;5033870;28;46896;-64
2022/06/27 04:56:54;;;;;;;4.87;2.13;;;25.30;40.90;;;;;;5028277;28;46375;-63
2022/06/27 04:59:21;;;;;;;9.30;2.50;;;26.40;38.20;;;;;;5031049;28;46304;-64
2022/06/27 05:01:50;;;;;;;8.07;1.90;;;27.20;35.60;;;;;;5029837;28;46603;-64
2022/06/27 05:04:19;;;;;;;5.27;2.20;;;27.80;33.30;;;;;;5031081;28;46399;-63
2022/06/27 05:06:46;;;;;;;4.60;2.00;;;28.40;30.50;;;;;;5028513;28;48384;-64
2022/06/27 05:09:12;;;;;;;4.37;2.27;;;29.20;28.30;;;;;;5031404;28;46556;-63
2022/06/27 05:11:38;;;;;;;6.80;2.23;;;29.90;27.70;;;;;;5030190;28;46448;-64
2022/06/27 05:14:04;;;;;;;4.50;2.10;;;30.20;26.10;;;;;;5030164;28;46825;-63
2022/06/27 05:16:30;;;;;;;7.30;2.00;;;30.50;24.80;;;;;;5029270;28;47250;-64
2022/06/27 05:18:56;;;;;;;3.40;2.13;;;31.00;23.90;;;;;;5028972;28;46447;-63
2022/06/27 05:21:22;;;;;;;9.23;2.00;;;31.10;23.20;;;;;;5031233;28;46481;-64
2022/06/27 05:23:50;;;;;;;3.30;1.57;;;31.30;22.70;;;;;;5027540;28;46473;-62
2022/06/27 05:26:16;;;;;;;2.90;1.80;;;31.70;21.90;;;;;;5029314;28;47238;-62
2022/06/27 05:28:42;;;;;;;2.93;1.90;;;32.00;20.50;;;;;;5031135;28;46373;-62
2022/06/27 05:31:09;;;;;;;2.80;1.53;;;32.10;20.00;;;;;;5032875;28;46470;-62
2022/06/27 05:33:35;;;;;;;6.83;1.90;;;32.20;19.10;;;;;;5032143;28;46704;-62
2022/06/27 05:36:01;;;;;;;9.70;1.97;;;32.50;18.90;;;;;;5031106;28;46135;-64
2022/06/27 05:38:27;;;;;;;3.30;1.90;;;32.60;18.40;;;;;;5031885;28;46673;-64
2022/06/27 05:40:52;;;;;;;3.33;1.70;;;32.70;18.40;;;;;;5030332;28;46409;-63
2022/06/27 05:43:19;;;;;;;5.90;2.20;;;33.10;17.60;;;;;;5025934;28;46650;-61
2022/06/27 05:45:45;;;;;;;4.30;2.10;;;33.30;17.10;;;;;;5031218;28;46177;-61
2022/06/27 05:48:11;;;;;;;6.90;2.10;;;33.60;16.70;;;;;;5030410;28;46501;-61
2022/06/27 05:50:37;;;;;;;3.40;1.77;;;34.00;15.50;;;;;;5032596;28;47316;-62
2022/06/27 05:53:03;;;;;;;4.00;1.70;;;34.00;14.50;;;;;;5028139;28;46624;-61
2022/06/27 05:55:29;;;;;;;7.33;1.57;;;33.80;14.40;;;;;;5031307;28;47873;-62
2022/06/27 05:57:59;;;;;;;7.60;1.90;;;32.70;16.80;;;;;;5036486;28;46241;-62
2022/06/27 06:00:25;;;;;;;9.93;1.70;;;31.00;19.60;;;;;;5030895;28;46787;-63
2022/06/27 06:02:51;;;;;;;3.63;2.23;;;29.50;22.50;;;;;;5028681;28;47033;-62
2022/06/27 06:05:17;;;;;;;3.67;1.83;;;28.80;24.30;;;;;;5030808;28;46608;-63
2022/06/27 06:07:43;;;;;;;6.17;1.93;;;28.30;25.50;;;;;;5029978;28;46504;-63
2022/06/27 06:10:09;;;;;;;3.00;1.67;;;27.80;26.20;;;;;;5028122;28;46689;-61
2022/06/27 06:12:35;;;;;;;6.20;2.00;;;27.40;27.20;;;;;;5033348;28;46759;-61
2022/06/27 06:15:05;;;;;;;4.60;2.03;;;27.10;27.10;;;;;;5028141;28;46468;-62
2022/06/27 06:17:34;;;;;;;5.83;2.10;;;27.00;27.00;;;;;;5034755;28;47308;-62
2022/06/27 06:20:00;;;;;;;5.37;2.23;;;26.80;26.90;;;;;;5033115;28;46579;-62
2022/06/27 06:22:26;;;;;;;4.30;2.13;;;26.60;26.80;;;;;;5030283;28;46373;-62
2022/06/27 06:24:52;;;;;;;6.93;2.43;;;26.60;26.80;;;;;;5035470;28;46351;-64
2022/06/27 06:27:19;;;;;;;4.60;2.00;;;26.50;27.00;;;;;;5030031;28;46786;-63
2022/06/27 06:29:45;;;;;;;5.70;2.10;;;26.50;26.90;;;;;;5035775;28;46438;-62
2022/06/27 06:32:11;;;;;;;5.90;2.07;;;26.40;27.20;;;;;;5035028;28;46319;-62
2022/06/27 06:34:38;;;;;;;2.90;1.70;;;26.40;27.40;;;;;;5039374;28;46311;-63
2022/06/27 06:37:05;;;;;;;4.87;1.83;;;26.40;27.30;;;;;;5035068;28;46919;-62
2022/06/27 06:39:31;;;;;;;7.90;1.87;;;26.40;27.40;;;;;;5037412;28;46841;-62
2022/06/27 06:41:57;;;;;;;3.87;2.17;;;26.30;27.70;;;;;;5034100;28;46264;-63
2022/06/27 06:44:24;;;;;;;5.47;2.20;;;26.50;27.50;;;;;;5034245;28;46931;-62
2022/06/27 06:46:51;;;;;;;3.50;2.00;;;26.40;27.80;;;;;;5033124;28;46453;-62
2022/06/27 06:49:17;;;;;;;3.93;1.93;;;26.40;27.80;;;;;;5031001;28;46462;-62
2022/06/27 06:51:42;;;;;;;4.80;1.97;;;26.50;27.50;;;;;;5033636;28;46593;-63
2022/06/27 06:54:12;;;;;;;8.30;1.83;;;26.60;27.10;;;;;;5033448;28;47122;-63
2022/06/27 06:56:38;;;;;;;4.57;1.97;;;26.60;27.20;;;;;;5033097;28;46465;-62
2022/06/27 06:59:05;;;;;;;5.57;2.30;;;26.40;27.70;;;;;;5034092;28;45840;-64
2022/06/27 07:01:33;;;;;;;6.97;1.90;;;26.30;27.90;;;;;;5031114;28;46451;-63
2022/06/27 07:03:59;;;;;;;12.50;1.97;;;26.30;28.10;;;;;;5033921;28;47285;-62
2022/06/27 07:06:26;;;;;;;3.20;1.80;;;26.40;28.60;;;;;;5031420;28;46450;-62
2022/06/27 07:08:54;;;;;;;9.80;2.33;;;26.50;28.40;;;;;;5030620;28;46301;-63
2022/06/27 07:11:21;;;;;;;4.53;1.60;;;26.60;28.10;;;;;;5031763;28;46539;-62
2022/06/27 07:13:51;;;;;;;3.03;1.73;;;26.80;28.10;;;;;;5032306;28;48458;-63
2022/06/27 07:16:21;;;;;;;3.70;1.97;;;27.00;28.20;;;;;;5030714;28;46382;-63
2022/06/27 07:18:51;;;;;;;3.50;1.90;;;27.00;28.10;;;;;;5032796;28;46379;-62
2022/06/27 07:21:18;;;;;;;3.90;2.13;;;27.10;28.00;;;;;;5029772;28;46397;-63
2022/06/27 07:23:47;;;;;;;3.83;1.90;;;27.00;28.10;;;;;;5037157;28;47644;-63
2022/06/27 07:26:13;;;;;;;3.10;1.87;;;26.90;28.10;;;;;;5034071;28;46526;-63
2022/06/27 07:28:40;;;;;;;4.60;2.17;;;26.80;27.90;;;;;;5032627;28;46448;-63
2022/06/27 07:31:08;;;;;;;5.70;1.80;;;26.80;27.70;;;;;;5029660;28;46634;-63
2022/06/27 07:33:36;;;;;;;3.73;2.00;;;27.00;27.10;;;;;;5031446;28;45956;-63
2022/06/27 07:36:03;;;;;;;8.20;1.83;;;27.30;27.20;;;;;;5032321;28;46473;-64
2022/06/27 07:38:32;;;;;;;5.80;1.70;;;27.50;27.30;;;;;;5031566;28;46422;-63
2022/06/27 07:40:58;;;;;;;4.80;2.23;;;27.40;27.30;;;;;;5032353;28;46810;-62
2022/06/27 07:43:24;;;;;;;7.70;2.20;;;27.60;27.40;;;;;;5032012;28;46893;-63
2022/06/27 07:45:51;;;;;;;2.93;1.90;;;27.50;27.30;;;;;;5030059;28;46356;-64
2022/06/27 07:48:20;;;;;;;4.17;2.00;;;27.50;27.30;;;;;;5032477;28;46701;-63
2022/06/27 07:50:46;;;;;;;6.20;1.93;;;27.50;27.30;;;;;;5030619;28;46662;-63
2022/06/27 07:53:14;;;;;;;3.33;1.97;;;27.60;27.10;;;;;;5027784;28;46638;-63
2022/06/27 07:55:51;;;;;;;4.73;2.10;;;27.70;26.70;;;;;;5032250;28;46464;-64
2022/06/27 07:58:19;;;;;;;3.87;1.80;;;27.80;26.80;;;;;;5031871;28;46453;-63
2022/06/27 08:00:47;;;;;;;3.97;2.00;;;27.70;28.40;;;;;;5030358;28;46438;-63
2022/06/27 08:03:59;;;;;;;4.83;1.83;;;27.40;27.20;;;;;;5030746;28;46940;-63
2022/06/27 08:06:00;;;;;;;2.77;1.67;;;27.20;27.60;;;;;;5033756;28;46437;-63
2022/06/27 08:08:27;;;;;;;10.83;2.17;;;27.40;27.20;;;;;;5029107;28;46377;-63
2022/06/27 08:10:54;;;;;;;3.57;2.07;;;27.30;27.20;;;;;;5030853;28;46655;-63
2022/06/27 08:13:20;;;;;;;4.20;1.93;;;27.30;27.20;;;;;;5032276;28;47214;-63
2022/06/27 08:15:48;;;;;;;4.30;2.00;;;27.40;27.30;;;;;;5032123;28;46388;-63
2022/06/27 08:18:17;;;;;;;8.73;2.00;;;27.70;27.40;;;;;;5031650;28;46387;-63
2022/06/27 08:20:45;;;;;;;7.43;2.20;;;27.80;27.10;;;;;;5033471;28;46455;-63
2022/06/27 08:23:15;;;;;;;3.80;1.70;;;27.40;27.20;;;;;;5029385;28;47330;-63
2022/06/27 08:25:42;;;;;;;3.73;1.63;;;27.50;27.40;;;;;;5030543;28;46420;-63
2022/06/27 08:28:11;;;;;;;4.27;1.80;;;27.30;27.20;;;;;;5031412;28;47214;-63
2022/06/27 08:30:37;;;;;;;5.30;1.90;;;27.10;27.70;;;;;;5028243;28;46740;-62
2022/06/27 08:33:03;;;;;;;2.90;1.80;;;27.10;27.90;;;;;;5030338;28;47266;-63
2022/06/27 08:35:30;;;;;;;3.53;1.87;;;27.30;27.40;;;;;;5030436;28;46675;-63
2022/06/27 08:37:58;;;;;;;3.10;1.80;;;27.40;27.20;;;;;;5029541;28;46380;-63
2022/06/27 08:40:25;;;;;;;6.50;2.10;;;27.50;27.30;;;;;;5026778;28;45922;-63
2022/06/27 08:42:52;;;;;;;3.93;2.20;;;27.40;27.20;;;;;;5029859;28;46463;-63
2022/06/27 08:45:20;;;;;;;3.57;2.03;;;27.30;27.20;;;;;;5032353;28;46300;-62
2022/06/27 08:47:46;;;;;;;7.03;2.00;;;27.20;27.10;;;;;;5031701;28;46469;-63
2022/06/27 08:50:17;;;;;;;3.93;1.97;;;27.20;27.10;;;;;;5027522;28;45952;-63
2022/06/27 08:52:45;;;;;;;3.10;1.90;;;27.50;27.30;;;;;;5035433;28;47162;-62
2022/06/27 08:55:11;;;;;;;4.33;2.20;;;27.90;28.50;;;;;;5028922;28;46488;-62
2022/06/27 08:57:39;;;;;;;7.30;1.63;;;28.30;26.30;;;;;;5033642;28;46386;-64
2022/06/27 09:00:06;;;;;;;4.37;2.20;;;28.10;27.10;;;;;;5032689;28;46025;-62
2022/06/27 09:02:41;;;;;;;5.53;2.20;;;27.90;26.80;;;;;;5034602;28;47151;-63
2022/06/27 09:05:18;;;;;;;3.17;1.80;;;27.80;26.90;;;;;;5034913;28;46471;-63
2022/06/27 09:07:51;;;;;;;6.67;2.67;;;27.90;26.90;;;;;;5035574;28;46318;-64
2022/06/27 09:10:29;;;;;;;3.83;1.80;;;28.00;27.70;;;;;;5027938;28;46434;-62
2022/06/27 09:13:04;;;;;;;12.33;2.00;;;28.00;26.70;;;;;;5029224;28;46499;-62
2022/06/27 09:15:53;;;;;;;4.63;2.10;;;28.10;26.10;;;;;;5033667;28;47282;-62
2022/06/27 09:18:32;;;;;;;4.87;1.90;;;28.30;26.40;;;;;;5031429;28;46411;-62
2022/06/27 09:21:03;;;;;;;3.77;1.77;;;28.20;26.70;;;;;;5031614;28;46535;-63
2022/06/27 09:23:49;;;;;;;5.10;2.00;;;28.00;27.70;;;;;;5032999;28;47351;-63
2022/06/27 09:26:31;;;;;;;3.43;1.73;;;28.10;27.20;;;;;;5029953;28;46456;-63
2022/06/27 09:29:09;;;;;;;4.73;1.83;;;28.10;26.90;;;;;;5030301;28;46364;-63
2022/06/27 09:31:42;;;;;;;3.30;1.90;;;28.30;26.90;;;;;;5029087;28;46797;-62
2022/06/27 09:34:21;;;;;;;2.77;1.50;;;28.30;26.00;;;;;;5032544;28;46339;-62
2022/06/27 09:36:50;;;;;;;3.67;1.60;;;28.20;25.10;;;;;;5031790;28;46441;-63
2022/06/27 09:39:36;;;;;;;3.90;2.00;;;27.90;24.70;;;;;;5031243;28;46421;-61
2022/06/27 09:42:08;;;;;;;2.93;1.43;;;27.70;25.10;;;;;;5029252;28;46885;-62
2022/06/27 09:44:41;;;;;;;2.63;1.60;;;27.90;24.90;;;;;;5031138;28;46552;-62
2022/06/27 09:47:11;;;;;;;5.83;1.90;;;27.90;24.90;;;;;;5029757;28;45893;-62
2022/06/27 09:49:43;;;;;;;5.60;1.43;;;27.90;24.90;;;;;;5030060;28;46730;-61
2022/06/27 09:52:13;;;;;;;5.57;1.67;;;28.10;25.10;;;;;;5029442;28;46427;-61
2022/06/27 09:54:42;;;;;;;6.20;1.67;;;28.20;24.80;;;;;;5039123;28;46367;-61
2022/06/27 09:57:09;;;;;;;8.60;1.90;;;28.30;24.80;;;;;;5044654;28;47032;-61
2022/06/27 09:59:36;;;;;;;3.37;1.60;;;28.70;24.80;;;;;;5041804;28;46862;-62
2022/06/27 10:02:05;;;;;;;4.73;1.60;;;28.80;24.40;;;;;;5041194;28;46484;-62
2022/06/27 10:04:32;;;;;;;2.70;1.30;;;28.90;24.70;;;;;;5045075;28;46837;-61
2022/06/27 10:07:02;;;;;;;3.43;1.60;;;29.10;24.20;;;;;;5042982;28;46453;-62
2022/06/27 10:09:29;;;;;;;3.73;1.77;;;29.40;24.50;;;;;;5040794;28;46469;-61
2022/06/27 10:12:25;;;;;;;2.83;1.73;;;29.30;24.70;;;;;;5043779;28;46313;-62
2022/06/27 10:15:09;;;;;;;3.50;1.80;;;29.30;25.00;;;;;;5045350;28;46924;-61
2022/06/27 10:17:50;;;;;;;4.40;1.93;;;29.40;24.90;;;;;;5045401;28;45906;-62
2022/06/27 10:20:26;;;;;;;4.33;1.80;;;29.20;25.00;;;;;;5039113;28;46390;-62
2022/06/27 10:23:04;;;;;;;8.40;1.83;;;28.90;25.00;;;;;;5042662;28;46664;-63
2022/06/27 10:25:29;;;;;;;4.23;1.80;;;28.90;25.20;;;;;;5044270;28;46166;-62
2022/06/27 10:28:18;;;;;;;4.50;1.80;;;29.10;25.00;;;;;;5042125;28;46381;-61
2022/06/27 10:30:57;;;;;;;2.67;1.53;;;29.30;24.30;;;;;;5041431;28;46382;-61
2022/06/27 10:33:26;;;;;;;4.30;1.37;;;29.20;23.80;;;;;;5042549;28;46143;-62
2022/06/27 10:36:10;;;;;;;7.33;2.20;;;29.00;23.40;;;;;;5045086;28;46496;-62
2022/06/27 10:38:38;;;;;;;4.90;1.90;;;29.20;23.40;;;;;;5046862;28;46736;-61
2022/06/27 10:41:05;;;;;;;4.63;1.97;;;29.10;23.20;;;;;;5038671;28;46472;-63
2022/06/27 10:43:39;;;;;;;3.73;1.77;;;29.20;23.00;;;;;;5043296;28;46755;-63
2022/06/27 10:46:10;;;;;;;4.67;2.17;;;29.20;22.50;;;;;;5043765;28;46660;-61
2022/06/27 10:48:36;;;;;;;6.77;1.93;;;29.20;22.70;;;;;;5041926;28;45862;-61
2022/06/27 10:51:27;;;;;;;3.83;2.20;;;29.20;22.50;;;;;;5040583;28;46538;-61
2022/06/27 10:54:09;;;;;;;6.20;2.20;;;29.20;21.80;;;;;;5042522;28;46483;-61
2022/06/27 10:56:36;;;;;;;5.53;2.10;;;29.30;21.90;;;;;;5043330;28;47236;-62
2022/06/27 10:59:04;;;;;;;8.87;1.90;;;29.40;21.90;;;;;;5042797;28;46408;-62
2022/06/27 11:01:30;;;;;;;4.73;1.50;;;29.60;21.20;;;;;;5038992;28;46869;-61
2022/06/27 11:03:57;;;;;;;3.23;1.60;;;29.60;20.70;;;;;;5041239;28;46812;-60
2022/06/27 11:06:23;;;;;;;11.43;1.87;;;29.30;19.60;;;;;;5048334;28;46456;-62
2022/06/27 11:08:52;;;;;;;3.17;1.83;;;29.30;20.30;;;;;;5046699;28;46507;-62
2022/06/27 11:11:21;;;;;;;9.07;2.37;;;29.20;19.20;;;;;;5040486;28;46482;-61
2022/06/27 11:13:50;;;;;;;3.20;1.73;;;29.20;19.60;;;;;;5047377;28;46344;-61
2022/06/27 11:16:19;;;;;;;4.30;1.60;;;29.00;19.70;;;;;;5044795;28;46490;-61
2022/06/27 11:19:00;;;;;;;3.23;1.57;;;29.10;19.70;;;;;;5046322;28;46628;-61
2022/06/27 11:21:34;;;;;;;5.83;1.60;;;29.10;19.70;;;;;;5042649;28;46428;-62
2022/06/27 11:24:04;;;;;;;9.30;2.00;;;29.20;20.10;;;;;;5045329;28;47074;-60
2022/06/27 11:26:29;;;;;;;3.47;1.80;;;29.20;20.30;;;;;;5047868;28;46646;-61
2022/06/27 11:31:59;;;;;;;4.43;1.90;;;29.30;21.20;;;;;;5045088;28;46636;-61
2022/06/27 11:34:30;;;;;;;4.10;1.63;;;29.30;21.20;;;;;;5050037;28;46482;-63
2022/06/27 11:36:57;;;;;;;3.70;1.67;;;29.40;21.60;;;;;;5048410;28;46403;-61
2022/06/27 11:39:28;;;;;;;5.53;1.50;;;29.60;21.90;;;;;;5045727;28;46734;-60
2022/06/27 11:41:59;;;;;;;3.03;1.30;;;29.70;22.60;;;;;;5045662;28;46397;-62
2022/06/27 11:44:26;;;;;;;5.80;1.57;;;29.70;22.50;;;;;;5047464;28;46379;-60
2022/06/27 11:46:53;;;;;;;3.87;1.90;;;29.50;22.60;;;;;;5048612;28;46496;-60
2022/06/27 11:49:28;;;;;;;2.60;1.30;;;29.40;22.70;;;;;;5044131;28;47140;-61
2022/06/27 11:52:02;;;;;;;4.00;1.50;;;29.30;22.70;;;;;;5044935;28;46507;-61
2022/06/27 11:54:37;;;;;;;4.13;1.40;;;29.10;23.90;;;;;;5044827;28;46709;-61
2022/06/27 11:57:03;;;;;;;2.73;1.40;;;29.20;22.90;;;;;;5046317;28;47496;-62
2022/06/27 11:59:29;;;;;;;4.40;1.27;;;28.90;22.90;;;;;;5043813;28;46501;-62
2022/06/27 12:02:03;;;;;;;4.00;1.50;;;28.80;23.30;;;;;;5057512;28;46517;-61
2022/06/27 12:04:33;;;;;;;4.40;1.37;;;28.80;23.10;;;;;;5047066;28;46358;-62
2022/06/27 12:07:04;;;;;;;2.80;1.20;;;28.80;23.00;;;;;;5045915;28;46435;-62
2022/06/27 12:09:31;;;;;;;4.93;1.30;;;28.80;23.10;;;;;;5044225;28;46379;-62
2022/06/27 12:12:03;;;;;;;3.83;1.20;;;28.80;23.50;;;;;;5044212;28;46363;-62
2022/06/27 12:14:31;;;;;;;2.50;1.30;;;29.10;23.10;;;;;;5044882;28;46434;-62
2022/06/27 12:16:58;;;;;;;6.20;1.40;;;29.10;22.30;;;;;;5046091;28;46111;-60
2022/06/27 12:19:26;;;;;;;6.20;1.33;;;29.30;22.40;;;;;;5044531;28;46445;-62
2022/06/27 12:21:52;;;;;;;2.90;1.40;;;29.50;22.40;;;;;;5041855;28;46454;-60
2022/06/27 12:24:18;;;;;;;3.57;1.13;;;29.00;21.50;;;;;;5047298;28;46377;-61
2022/06/27 12:26:44;;;;;;;3.40;1.37;;;29.20;21.70;;;;;;5045970;28;47336;-61
2022/06/27 12:29:10;;;;;;;4.23;1.40;;;29.20;21.50;;;;;;5046012;28;46444;-60
2022/06/27 12:31:37;;;;;;;4.87;1.20;;;29.50;21.60;;;;;;5043983;28;45949;-60
2022/06/27 12:34:04;;;;;;;5.33;1.50;;;29.40;22.10;;;;;;5044898;28;46470;-61
2022/06/27 12:36:31;;;;;;;3.80;1.60;;;29.80;22.60;;;;;;5051555;28;46496;-61
2022/06/27 12:38:58;;;;;;;2.30;1.20;;;29.70;23.20;;;;;;5053061;28;46491;-61
2022/06/27 12:41:24;;;;;;;5.73;1.47;;;29.40;23.20;;;;;;5046516;28;46467;-62
2022/06/27 12:43:50;;;;;;;10.80;1.90;;;29.00;23.70;;;;;;5047294;28;46431;-61
2022/06/27 12:46:18;;;;;;;3.03;1.33;;;29.00;23.60;;;;;;5051929;28;47616;-63
2022/06/27 12:48:44;;;;;;;3.23;1.50;;;28.70;23.80;;;;;;5049753;28;46260;-65
2022/06/27 12:51:10;;;;;;;2.70;1.47;;;28.70;24.70;;;;;;5047599;28;46323;-61
2022/06/27 12:53:37;;;;;;;4.20;1.37;;;28.90;24.50;;;;;;5045104;28;46399;-62
2022/06/27 12:56:03;;;;;;;3.60;1.40;;;28.60;24.10;;;;;;5044012;28;47232;-61
2022/06/27 12:58:30;;;;;;;7.20;1.40;;;28.60;24.40;;;;;;5044396;28;46906;-61